createdAt,value
2017-11-16T00:00:35.812Z,35.35
2017-11-16T00:03:04.033Z,33.33
2017-11-16T00:05:31.467Z,35.80
2017-11-16T00:07:58.951Z,35.05
2017-11-16T00:10:26.394Z,36.60
2017-11-16T00:12:53.853Z,39.17
2017-11-16T00:15:21.291Z,37.78
2017-11-16T00:17:48.740Z,39.47
2017-11-16T00:20:16.177Z,39.42
2017-11-16T00:22:43.631Z,39.90
2017-11-16T00:25:11.839Z,41.07
2017-11-16T00:27:39.293Z,43.17
2017-11-16T00:30:06.732Z,46.83
2017-11-16T00:32:34.175Z,50.67
2017-11-16T00:35:02.380Z,48.70
2017-11-16T00:37:29.835Z,48.95
2017-11-16T00:39:57.271Z,62.17
2017-11-16T00:42:24.732Z,61.72
2017-11-16T00:44:52.188Z,68.72
2017-11-16T00:47:19.656Z,73.53
2017-11-16T00:49:47.091Z,75.63
2017-11-16T00:52:14.547Z,75.28
2017-11-16T00:54:42.006Z,73.03
2017-11-16T00:57:09.463Z,77.05
2017-11-16T00:59:36.940Z,77.28
2017-11-16T01:02:04.390Z,77.30
2017-11-16T01:04:31.848Z,78.55
2017-11-16T01:06:59.299Z,83.95
2017-11-16T01:09:26.764Z,77.68
2017-11-16T01:11:54.208Z,86.37
2017-11-16T01:14:21.663Z,81.85
2017-11-16T01:16:49.109Z,77.45
2017-11-16T01:19:17.333Z,79.90
2017-11-16T01:21:44.781Z,90.15
2017-11-16T01:24:12.247Z,78.03
2017-11-16T01:26:39.696Z,82.53
2017-11-16T01:29:07.144Z,82.82
2017-11-16T01:31:34.591Z,80.22
2017-11-16T01:34:02.048Z,81.87
2017-11-16T01:36:29.516Z,82.88
2017-11-16T01:38:56.960Z,78.20
2017-11-16T01:41:24.427Z,77.28
2017-11-16T01:43:51.881Z,84.53
2017-11-16T01:46:19.334Z,81.07
2017-11-16T01:48:46.791Z,82.78
2017-11-16T01:51:14.233Z,83.60
2017-11-16T01:53:41.664Z,82.80
2017-11-16T01:56:09.879Z,79.93
2017-11-16T01:58:37.336Z,75.97
2017-11-16T02:01:08.820Z,83.57
2017-11-16T02:03:36.274Z,74.78
2017-11-16T02:06:03.715Z,79.70
2017-11-16T02:08:31.196Z,74.22
2017-11-16T02:10:58.632Z,72.05
2017-11-16T02:13:26.087Z,72.20
2017-11-16T02:15:53.535Z,73.13
2017-11-16T02:18:20.988Z,69.60
2017-11-16T02:20:48.449Z,71.35
2017-11-16T02:23:15.875Z,68.90
2017-11-16T02:25:43.327Z,72.70
2017-11-16T02:28:10.752Z,68.62
2017-11-16T02:30:38.963Z,65.57
2017-11-16T02:33:06.429Z,64.03
2017-11-16T02:35:33.871Z,61.42
2017-11-16T02:38:01.325Z,65.37
2017-11-16T02:40:28.768Z,64.78
2017-11-16T02:42:56.220Z,59.95
2017-11-16T02:45:24.456Z,61.30
2017-11-16T02:47:51.895Z,64.70
2017-11-16T02:50:19.335Z,66.20
2017-11-16T02:52:46.770Z,68.05
2017-11-16T02:55:14.226Z,64.82
2017-11-16T02:57:41.673Z,63.70
2017-11-16T03:00:09.880Z,69.35
2017-11-16T03:02:37.334Z,64.20
2017-11-16T03:05:04.769Z,66.20
2017-11-16T03:07:32.221Z,65.95
2017-11-16T03:10:00.440Z,68.45
2017-11-16T03:12:27.883Z,62.60
2017-11-16T03:14:56.109Z,66.72
2017-11-16T03:17:24.335Z,66.45
2017-11-16T03:19:51.788Z,60.95
2017-11-16T03:22:19.219Z,60.40
2017-11-16T03:24:46.672Z,65.25
2017-11-16T03:27:14.122Z,65.57
2017-11-16T03:29:41.563Z,60.12
2017-11-16T03:32:09.007Z,60.55
2017-11-16T03:34:36.449Z,60.12
2017-11-16T03:37:03.903Z,60.95
2017-11-16T03:39:31.327Z,58.28
2017-11-16T03:41:58.800Z,65.90
2017-11-16T03:44:26.245Z,59.70
2017-11-16T03:46:53.691Z,56.03
2017-11-16T03:49:21.140Z,56.22
2017-11-16T03:51:48.600Z,54.83
2017-11-16T03:54:16.040Z,53.23
2017-11-16T03:56:43.508Z,55.10
2017-11-16T03:59:10.968Z,52.33
2017-11-16T04:01:38.483Z,52.15
2017-11-16T04:04:05.911Z,56.43
2017-11-16T04:06:33.352Z,53.95
2017-11-16T04:09:00.807Z,50.03
2017-11-16T04:11:28.276Z,50.78
2017-11-16T04:13:55.737Z,51.15
2017-11-16T04:16:23.168Z,50.50
2017-11-16T04:18:50.624Z,46.13
2017-11-16T04:21:18.100Z,46.20
2017-11-16T04:23:45.534Z,47.65
2017-11-16T04:26:12.982Z,48.00
2017-11-16T04:28:40.412Z,45.20
2017-11-16T04:31:08.636Z,49.17
2017-11-16T04:33:36.081Z,44.08
2017-11-16T04:36:03.548Z,45.17
2017-11-16T04:38:30.981Z,44.80
2017-11-16T04:40:58.437Z,41.53
2017-11-16T04:43:25.871Z,39.25
2017-11-16T04:45:54.116Z,41.10
2017-11-16T04:48:21.551Z,39.28
2017-11-16T04:50:49.054Z,41.10
2017-11-16T04:53:17.261Z,39.00
2017-11-16T04:55:44.683Z,38.90
2017-11-16T04:58:12.906Z,37.42
2017-11-16T05:00:40.352Z,40.25
2017-11-16T05:03:07.808Z,38.95
2017-11-16T05:05:35.254Z,40.95
2017-11-16T05:08:02.719Z,40.00
2017-11-16T05:10:30.147Z,41.67
2017-11-16T05:12:58.379Z,39.08
2017-11-16T05:15:25.820Z,43.15
2017-11-16T05:17:53.269Z,41.08
2017-11-16T05:20:20.696Z,41.20
2017-11-16T05:22:48.147Z,37.53
2017-11-16T05:25:16.347Z,36.63
2017-11-16T05:27:43.783Z,37.40
2017-11-16T05:30:11.240Z,35.90
2017-11-16T05:32:39.449Z,37.47
2017-11-16T05:35:06.883Z,42.38
2017-11-16T05:37:34.369Z,44.63
2017-11-16T05:40:01.807Z,40.03
2017-11-16T05:42:29.256Z,47.42
2017-11-16T05:44:56.705Z,41.83
2017-11-16T05:47:24.153Z,46.45
2017-11-16T05:49:51.603Z,44.33
2017-11-16T05:52:19.048Z,43.75
2017-11-16T05:54:46.491Z,43.60
2017-11-16T05:57:14.711Z,44.85
2017-11-16T05:59:42.151Z,43.75
2017-11-16T06:02:09.592Z,46.13
2017-11-16T06:04:37.060Z,42.70
2017-11-16T06:07:04.495Z,41.20
2017-11-16T06:09:31.943Z,43.97
2017-11-16T06:11:59.385Z,45.83
2017-11-16T06:14:26.857Z,41.85
2017-11-16T06:16:54.300Z,41.05
2017-11-16T06:19:21.776Z,46.47
2017-11-16T06:21:49.217Z,42.25
2017-11-16T06:24:16.688Z,42.90
2017-11-16T06:26:44.143Z,44.10
2017-11-16T06:29:11.627Z,40.50
2017-11-16T06:31:39.061Z,39.97
2017-11-16T06:34:07.274Z,42.88
2017-11-16T06:36:34.733Z,41.65
2017-11-16T06:39:02.173Z,40.90
2017-11-16T06:41:29.619Z,45.15
2017-11-16T06:43:57.075Z,42.67
2017-11-16T06:46:25.164Z,41.88
2017-11-16T06:48:52.607Z,44.83
2017-11-16T06:51:20.064Z,47.45
2017-11-16T06:53:47.530Z,48.78
2017-11-16T06:56:14.980Z,45.87
2017-11-16T06:58:42.425Z,48.80
2017-11-16T07:01:10.691Z,47.22
2017-11-16T07:03:38.161Z,42.72
2017-11-16T07:06:05.629Z,44.63
2017-11-16T07:08:33.097Z,44.13
2017-11-16T07:11:00.544Z,42.78
2017-11-16T07:13:28.000Z,44.60
2017-11-16T07:15:55.451Z,41.33
2017-11-16T07:18:22.890Z,42.45
2017-11-16T07:20:50.367Z,39.33
2017-11-16T07:23:17.833Z,39.88
2017-11-16T07:25:45.281Z,33.70
2017-11-16T07:28:12.720Z,34.17
2017-11-16T07:30:40.230Z,35.30
2017-11-16T07:33:07.681Z,36.40
2017-11-16T07:35:35.126Z,34.40
2017-11-16T07:38:02.571Z,35.38
2017-11-16T07:40:30.033Z,33.88
2017-11-16T07:42:57.484Z,33.67
2017-11-16T07:48:15.457Z,32.70
2017-11-16T07:50:42.883Z,34.42
2017-11-16T07:53:10.337Z,33.90
2017-11-16T07:55:37.776Z,36.65
2017-11-16T07:58:05.226Z,34.00
2017-11-16T08:00:33.428Z,34.88
2017-11-16T08:03:00.897Z,32.90
2017-11-16T08:05:28.327Z,31.80
2017-11-16T08:07:55.763Z,34.80
2017-11-16T08:10:24.003Z,33.70
2017-11-16T08:12:51.454Z,34.90
2017-11-16T08:15:18.927Z,32.13
2017-11-16T08:17:46.388Z,33.83
2017-11-16T08:20:13.844Z,32.78
2017-11-16T08:22:41.313Z,35.97
2017-11-16T08:25:09.524Z,35.47
2017-11-16T08:27:36.963Z,31.62
2017-11-16T08:30:04.435Z,32.50
2017-11-16T08:32:31.875Z,34.42
2017-11-16T08:34:59.320Z,34.47
2017-11-16T08:37:26.779Z,33.90
2017-11-16T08:39:54.986Z,35.50
2017-11-16T08:42:22.428Z,33.65
2017-11-16T08:44:49.883Z,35.30
2017-11-16T08:47:17.521Z,33.27
2017-11-16T08:49:45.720Z,36.60
2017-11-16T08:52:13.167Z,38.47
2017-11-16T08:54:41.373Z,38.70
2017-11-16T08:57:08.812Z,36.80
2017-11-16T08:59:36.305Z,39.50
2017-11-16T09:02:03.723Z,37.25
2017-11-16T09:04:31.173Z,39.28
2017-11-16T09:06:58.621Z,41.60
2017-11-16T09:09:26.091Z,38.20
2017-11-16T09:11:53.556Z,41.13
2017-11-16T09:14:20.997Z,38.58
2017-11-16T09:16:48.467Z,40.85
2017-11-16T09:19:15.924Z,36.63
2017-11-16T09:21:43.365Z,36.95
2017-11-16T09:24:10.823Z,41.35
2017-11-16T09:26:38.272Z,41.50
2017-11-16T09:29:05.756Z,37.20
2017-11-16T09:31:33.210Z,36.70
2017-11-16T09:34:00.657Z,39.92
2017-11-16T09:36:28.122Z,37.72
2017-11-16T09:38:55.579Z,38.40
2017-11-16T09:41:23.027Z,35.20
2017-11-16T09:43:50.479Z,39.90
2017-11-16T09:46:17.948Z,35.50
2017-11-16T09:48:45.396Z,34.13
2017-11-16T09:51:12.847Z,33.78
2017-11-16T09:53:40.303Z,35.38
2017-11-16T09:56:07.759Z,33.85
2017-11-16T09:58:35.237Z,31.30
2017-11-16T10:01:02.703Z,34.97
2017-11-16T10:03:30.162Z,33.28
2017-11-16T10:08:31.532Z,31.42
2017-11-16T10:10:58.996Z,32.00
2017-11-16T10:13:26.477Z,30.05
2017-11-16T10:15:53.956Z,29.33
2017-11-16T10:18:21.414Z,34.38
2017-11-16T10:20:48.888Z,29.05
2017-11-16T10:23:16.337Z,26.95
2017-11-16T10:25:43.826Z,28.42
2017-11-16T10:28:11.286Z,26.05
2017-11-16T10:30:39.552Z,25.23
2017-11-16T10:33:06.980Z,26.27
2017-11-16T10:35:34.458Z,27.62
2017-11-16T10:38:01.921Z,28.42
2017-11-16T10:40:29.374Z,25.95
2017-11-16T10:42:56.827Z,25.10
2017-11-16T10:45:24.264Z,23.45
2017-11-16T10:47:51.745Z,25.20
2017-11-16T10:50:19.216Z,23.70
2017-11-16T10:52:46.656Z,23.73
2017-11-16T10:55:14.114Z,25.92
2017-11-16T10:57:41.585Z,25.90
2017-11-16T11:00:09.121Z,25.30
2017-11-16T11:02:36.633Z,25.40
2017-11-16T11:05:04.078Z,24.90
2017-11-16T11:07:31.524Z,24.15
2017-11-16T11:09:58.990Z,25.67
2017-11-16T11:12:26.456Z,25.73
2017-11-16T11:14:53.895Z,26.27
2017-11-16T11:17:21.347Z,26.00
2017-11-16T11:19:48.825Z,23.40
2017-11-16T11:22:17.063Z,23.80
2017-11-16T11:24:44.543Z,27.42
2017-11-16T11:27:11.988Z,23.38
2017-11-16T11:29:39.487Z,23.85
2017-11-16T11:32:06.932Z,24.42
2017-11-16T11:34:34.445Z,25.45
2017-11-16T11:37:01.890Z,25.05
2017-11-16T11:39:29.389Z,24.60
2017-11-16T11:41:56.837Z,23.35
2017-11-16T11:44:24.284Z,24.80
2017-11-16T11:46:51.792Z,21.87
2017-11-16T11:49:19.225Z,23.90
2017-11-16T11:51:47.456Z,23.87
2017-11-16T11:54:14.928Z,25.45
2017-11-16T11:56:42.385Z,23.17
2017-11-16T11:59:09.890Z,22.58
2017-11-16T12:01:37.326Z,22.02
2017-11-16T12:04:05.552Z,22.58
2017-11-16T12:06:32.985Z,21.90
2017-11-16T12:09:00.422Z,22.42
2017-11-16T12:11:27.888Z,21.20
2017-11-16T12:13:55.357Z,21.95
2017-11-16T12:16:22.799Z,21.80
2017-11-16T12:18:50.308Z,22.83
2017-11-16T12:21:17.761Z,22.90
2017-11-16T12:23:45.248Z,23.40
2017-11-16T12:26:12.716Z,22.77
2017-11-16T12:28:40.157Z,23.13
2017-11-16T12:31:08.374Z,22.25
2017-11-16T12:33:35.843Z,22.40
2017-11-16T12:36:03.345Z,23.30
2017-11-16T12:38:31.540Z,22.90
2017-11-16T12:40:59.005Z,23.17
2017-11-16T12:43:26.454Z,24.33
2017-11-16T12:45:53.921Z,23.33
2017-11-16T12:48:21.374Z,24.93
2017-11-16T12:50:48.822Z,26.23
2017-11-16T12:53:16.280Z,25.85
2017-11-16T12:55:43.740Z,26.00
2017-11-16T12:58:11.196Z,27.83
2017-11-16T13:00:38.659Z,27.50
2017-11-16T13:03:06.116Z,27.83
2017-11-16T13:05:33.574Z,26.90
2017-11-16T13:08:01.026Z,25.73
2017-11-16T13:10:28.473Z,25.27
2017-11-16T13:12:55.940Z,24.80
2017-11-16T13:15:23.408Z,25.88
2017-11-16T13:17:50.862Z,23.60
2017-11-16T13:20:18.323Z,23.75
2017-11-16T13:22:45.768Z,23.70
2017-11-16T13:25:13.207Z,22.85
2017-11-16T13:27:40.684Z,22.80
2017-11-16T13:30:08.133Z,23.05
2017-11-16T13:32:35.605Z,25.88
2017-11-16T13:35:03.053Z,25.03
2017-11-16T13:37:31.849Z,26.55
2017-11-16T13:39:59.283Z,27.83
2017-11-16T13:43:00.136Z,29.15
2017-11-16T13:45:27.584Z,28.33
2017-11-16T13:47:55.047Z,32.60
2017-11-16T13:50:22.629Z,29.12
2017-11-16T13:52:50.083Z,28.58
2017-11-16T13:55:17.749Z,27.07
2017-11-16T13:57:45.183Z,26.77
2017-11-16T14:00:12.743Z,24.77
2017-11-16T14:02:40.422Z,26.70
2017-11-16T14:05:07.999Z,26.40
2017-11-16T14:07:35.440Z,27.23
2017-11-16T14:10:02.884Z,27.25
2017-11-16T14:12:30.443Z,28.10
2017-11-16T14:14:57.939Z,26.92
2017-11-16T14:17:25.393Z,28.12
2017-11-16T14:19:52.877Z,27.98
2017-11-16T14:22:20.402Z,29.08
2017-11-16T14:24:47.936Z,29.77
2017-11-16T14:27:15.385Z,30.80
2017-11-16T14:29:42.852Z,33.20
2017-11-16T14:32:10.337Z,31.85
2017-11-16T14:34:37.972Z,31.25
2017-11-16T14:37:05.427Z,33.67
2017-11-16T14:39:33.061Z,33.97
2017-11-16T14:42:00.524Z,32.10
2017-11-16T14:44:27.944Z,32.05
2017-11-16T14:46:55.453Z,33.47
2017-11-16T14:49:23.043Z,34.13
2017-11-16T14:51:50.495Z,34.33
2017-11-16T14:54:18.711Z,32.23
2017-11-16T14:56:46.156Z,33.20
2017-11-16T14:59:13.621Z,34.00
2017-11-16T15:01:41.152Z,34.95
2017-11-16T15:04:09.418Z,33.00
2017-11-16T15:06:36.864Z,33.05
2017-11-16T15:09:04.327Z,34.78
2017-11-16T15:11:31.820Z,34.72
2017-11-16T15:13:59.269Z,35.63
2017-11-16T15:16:26.734Z,35.45
2017-11-16T15:18:54.231Z,36.47
2017-11-16T15:21:21.684Z,34.78
2017-11-16T15:23:49.144Z,34.80
2017-11-16T15:26:16.599Z,32.83
2017-11-16T15:28:44.059Z,34.25
2017-11-16T15:31:12.283Z,34.65
2017-11-16T15:33:39.799Z,34.80
2017-11-16T15:36:07.251Z,35.28
2017-11-16T15:38:34.796Z,33.75
2017-11-16T15:41:02.240Z,34.60
2017-11-16T15:43:29.675Z,34.35
2017-11-16T15:45:57.131Z,33.50
2017-11-16T15:48:24.575Z,35.38
2017-11-16T15:50:52.036Z,34.05
2017-11-16T15:53:19.507Z,34.13
2017-11-16T15:55:46.992Z,34.90
2017-11-16T15:58:14.458Z,33.60
2017-11-16T16:00:41.912Z,33.90
2017-11-16T16:03:09.389Z,34.25
2017-11-16T16:05:36.994Z,36.37
2017-11-16T16:08:04.536Z,36.97
2017-11-16T16:10:32.015Z,37.28
2017-11-16T16:12:59.472Z,35.60
2017-11-16T16:15:26.977Z,35.65
2017-11-16T16:17:54.468Z,38.30
2017-11-16T16:20:21.918Z,38.50
2017-11-16T16:22:50.199Z,36.97
2017-11-16T16:25:17.712Z,35.78
2017-11-16T16:27:45.172Z,38.50
2017-11-16T16:30:12.624Z,43.30
2017-11-16T16:32:40.076Z,39.17
2017-11-16T16:35:07.649Z,35.83
2017-11-16T16:37:35.119Z,37.67
2017-11-16T16:40:03.425Z,36.80
2017-11-16T16:42:30.876Z,35.05
2017-11-16T16:44:58.321Z,38.05
2017-11-16T16:47:25.808Z,34.97
2017-11-16T16:49:53.260Z,34.58
2017-11-16T16:52:20.707Z,34.80
2017-11-16T16:54:48.172Z,36.10
2017-11-16T16:57:16.494Z,34.90
2017-11-16T16:59:44.049Z,36.50
2017-11-16T17:02:11.500Z,35.85
2017-11-16T17:04:39.003Z,36.53
2017-11-16T17:07:07.342Z,37.55
2017-11-16T17:09:34.857Z,36.50
2017-11-16T17:12:03.165Z,37.53
2017-11-16T17:14:30.597Z,36.08
2017-11-16T17:16:58.067Z,37.15
2017-11-16T17:19:25.511Z,35.08
2017-11-16T17:21:53.066Z,36.03
2017-11-16T17:24:20.533Z,34.40
2017-11-16T17:26:47.984Z,36.00
2017-11-16T17:29:15.493Z,35.53
2017-11-16T17:31:42.947Z,35.03
2017-11-16T17:34:10.491Z,35.55
2017-11-16T17:36:38.065Z,35.88
2017-11-16T17:39:05.514Z,36.00
2017-11-16T17:41:33.042Z,36.15
2017-11-16T17:44:00.594Z,36.17
2017-11-16T17:46:28.172Z,34.28
2017-11-16T17:48:55.774Z,36.95
2017-11-16T17:51:23.228Z,36.47
2017-11-16T17:53:51.462Z,35.13
2017-11-16T17:56:18.929Z,37.70
2017-11-16T17:58:46.367Z,36.45
2017-11-16T18:01:13.821Z,35.35
2017-11-16T18:03:41.278Z,38.80
2017-11-16T18:06:08.762Z,39.20
2017-11-16T18:08:36.309Z,37.15
2017-11-16T18:11:03.753Z,39.45
2017-11-16T18:13:31.224Z,38.75
2017-11-16T18:15:58.780Z,40.15
2017-11-16T18:18:26.250Z,40.58
2017-11-16T18:20:53.773Z,39.33
2017-11-16T18:23:21.363Z,42.40
2017-11-16T18:25:48.822Z,41.58
2017-11-16T18:28:16.290Z,41.35
2017-11-16T18:30:44.559Z,41.17
2017-11-16T18:33:12.019Z,40.70
2017-11-16T18:35:39.576Z,44.60
2017-11-16T18:38:07.027Z,43.25
2017-11-16T18:40:34.484Z,44.67
2017-11-16T18:43:02.140Z,46.35
2017-11-16T18:45:29.700Z,47.80
2017-11-16T18:47:57.132Z,48.17
2017-11-16T18:50:24.620Z,45.75
2017-11-16T18:52:52.077Z,44.35
2017-11-16T18:55:19.536Z,46.63
2017-11-16T18:57:46.993Z,45.53
2017-11-16T19:00:15.325Z,46.08
2017-11-16T19:02:42.768Z,48.63
2017-11-16T19:05:10.276Z,51.37
2017-11-16T19:07:39.248Z,48.40
2017-11-16T19:10:06.719Z,50.25
2017-11-16T19:12:34.165Z,52.70
2017-11-16T19:15:01.647Z,48.47
2017-11-16T19:17:29.144Z,48.78
2017-11-16T19:19:56.604Z,50.30
2017-11-16T19:22:24.037Z,48.97
2017-11-16T19:24:51.509Z,47.30
2017-11-16T19:27:19.026Z,50.35
2017-11-16T19:29:46.697Z,53.28
2017-11-16T19:32:14.921Z,49.58
2017-11-16T19:34:42.401Z,51.90
2017-11-16T19:37:09.901Z,50.90
2017-11-16T19:39:37.420Z,50.75
2017-11-16T19:42:04.898Z,51.80
2017-11-16T19:44:32.364Z,48.87
2017-11-16T19:47:00.583Z,50.67
2017-11-16T19:49:28.044Z,52.67
2017-11-16T19:51:55.513Z,55.03
2017-11-16T19:54:23.037Z,49.17
2017-11-16T19:56:50.510Z,47.88
2017-11-16T19:59:17.979Z,54.55
2017-11-16T20:01:45.442Z,54.00
2017-11-16T20:04:12.893Z,55.53
2017-11-16T20:06:40.327Z,52.53
2017-11-16T20:09:07.809Z,53.78
2017-11-16T20:11:35.302Z,52.90
2017-11-16T20:14:03.514Z,50.75
2017-11-16T20:16:30.955Z,50.80
2017-11-16T20:18:58.442Z,55.05
2017-11-16T20:21:26.088Z,52.97
2017-11-16T20:23:53.548Z,53.58
2017-11-16T20:26:21.070Z,52.05
2017-11-16T20:28:49.284Z,51.97
2017-11-16T20:31:16.745Z,53.50
2017-11-16T20:33:44.224Z,54.53
2017-11-16T20:36:11.663Z,54.70
2017-11-16T20:38:54.920Z,54.92
2017-11-16T20:41:28.163Z,55.73
2017-11-16T20:47:00.657Z,57.42
2017-11-16T20:49:33.795Z,56.47
2017-11-16T20:52:01.239Z,58.63
2017-11-16T20:54:28.740Z,53.08
2017-11-16T20:56:56.195Z,56.78
2017-11-16T20:59:24.418Z,60.20
2017-11-16T21:01:51.887Z,57.95
2017-11-16T21:04:19.335Z,58.42
2017-11-16T21:06:46.832Z,59.20
2017-11-16T21:09:15.090Z,58.55
2017-11-16T21:11:42.570Z,58.80
2017-11-16T21:14:10.021Z,58.10
2017-11-16T21:16:38.271Z,60.25
2017-11-16T21:19:05.743Z,57.45
2017-11-16T21:21:33.254Z,61.03
2017-11-16T21:24:00.717Z,59.63
2017-11-16T21:26:28.143Z,58.97
2017-11-16T21:28:55.603Z,60.17
2017-11-16T21:31:23.154Z,60.85
2017-11-16T21:33:50.649Z,63.87
2017-11-16T21:36:18.104Z,61.00
2017-11-16T21:38:45.559Z,63.10
2017-11-16T21:41:13.120Z,60.25
2017-11-16T21:43:40.576Z,62.03
2017-11-16T21:46:08.051Z,62.67
2017-11-16T21:48:35.510Z,62.03
2017-11-16T21:51:03.041Z,61.30
2017-11-16T21:53:30.622Z,65.10
2017-11-16T21:55:58.085Z,58.13
2017-11-16T21:58:25.527Z,64.00
2017-11-16T22:00:53.087Z,68.22
2017-11-16T22:03:20.545Z,66.57
2017-11-16T22:05:48.248Z,68.72
2017-11-16T22:08:15.668Z,74.15
2017-11-16T22:10:43.206Z,71.10
2017-11-16T22:13:10.668Z,73.87
2017-11-16T22:15:38.126Z,77.57
2017-11-16T22:18:05.568Z,71.40
2017-11-16T22:20:33.012Z,74.30
2017-11-16T22:23:00.513Z,74.30
2017-11-16T22:25:27.995Z,76.37
2017-11-16T22:27:56.223Z,78.80
2017-11-16T22:30:23.685Z,72.55
2017-11-16T22:32:51.143Z,76.18
2017-11-16T22:35:18.607Z,57.75
2017-11-16T22:37:46.080Z,38.58
2017-11-16T22:40:14.434Z,31.27
2017-11-16T22:42:41.997Z,26.90
2017-11-16T22:45:09.473Z,26.40
2017-11-16T22:47:37.018Z,23.65
2017-11-16T22:50:04.577Z,20.65
2017-11-16T22:52:32.130Z,18.27
2017-11-16T22:54:59.655Z,16.83
2017-11-16T22:57:27.126Z,9.95
2017-11-16T22:59:54.664Z,10.73
2017-11-16T23:02:22.122Z,9.57
2017-11-16T23:04:49.568Z,9.52
2017-11-16T23:07:17.012Z,8.03
2017-11-16T23:09:44.509Z,8.48
2017-11-16T23:12:12.194Z,9.75
2017-11-16T23:14:40.446Z,6.72
2017-11-16T23:17:07.877Z,6.12
2017-11-16T23:19:35.491Z,7.05
2017-11-16T23:22:03.127Z,6.20
2017-11-16T23:24:30.567Z,6.12
2017-11-16T23:26:58.017Z,6.22
2017-11-16T23:29:25.716Z,5.78
2017-11-16T23:31:53.176Z,7.37
2017-11-16T23:34:20.815Z,7.22
2017-11-16T23:36:48.264Z,6.40
2017-11-16T23:39:15.716Z,4.78
2017-11-16T23:41:43.294Z,6.40
2017-11-16T23:44:10.728Z,6.78
2017-11-16T23:46:38.177Z,5.87
2017-11-16T23:49:05.624Z,5.20
2017-11-16T23:51:33.044Z,6.63
2017-11-16T23:54:01.315Z,8.00
2017-11-16T23:56:29.647Z,9.10
2017-11-16T23:58:57.106Z,6.82
